Time;durP1;ratioP1;P1;durP2;ratioP2;P2;SDS_P1;SDS_P2;PMS_P1;PMS_P2;Temp;Humidity;BMP_temperature;BMP_pressure;BME280_temperature;BME280_humidity;BME280_pressure;Samples;Min_cycle;Max_cycle;Signal;HPM_P1;HPM_P2
2022/01/19 00:02:05;;;;;;;17.90;11.90;;;;;;;1.50;100.00;98209.19;10373151;28;20266;-63
2022/01/19 00:07:06;;;;;;;17.80;11.20;;;;;;;1.65;100.00;98197.38;10373060;28;20216;-62
2022/01/19 00:12:06;;;;;;;21.47;12.47;;;;;;;1.32;100.00;98181.56;10372965;28;20243;-66
2022/01/19 00:17:07;;;;;;;21.87;12.20;;;;;;;1.51;100.00;98161.78;10372586;28;20197;-65
2022/01/19 00:22:07;;;;;;;20.77;13.47;;;;;;;1.31;100.00;98146.28;10372167;28;20753;-66
2022/01/19 00:27:07;;;;;;;26.03;13.33;;;;;;;1.47;100.00;98139.59;10373583;28;20683;-64
2022/01/19 00:32:08;;;;;;;17.70;11.60;;;;;;;1.55;100.00;98136.69;10372770;28;20679;-64
2022/01/19 00:37:08;;;;;;;19.47;11.80;;;;;;;1.51;100.00;98133.38;10365696;28;20231;-66
2022/01/19 00:42:09;;;;;;;18.20;11.93;;;;;;;1.23;100.00;98124.22;10371612;28;20217;-66
2022/01/19 00:47:09;;;;;;;16.83;10.47;;;;;;;1.31;100.00;98135.97;10371528;28;20666;-65
2022/01/19 00:52:10;;;;;;;21.93;12.30;;;;;;;1.48;100.00;98132.69;10371216;28;20247;-66
2022/01/19 00:57:10;;;;;;;20.53;12.17;;;;;;;1.55;100.00;98139.28;10371264;28;20211;-66
2022/01/19 01:02:10;;;;;;;18.70;11.13;;;;;;;1.49;100.00;98124.88;10369665;28;20266;-65
2022/01/19 01:07:11;;;;;;;15.60;10.33;;;;;;;1.54;100.00;98117.75;10371075;28;20197;-65
2022/01/19 01:12:13;;;;;;;17.83;11.97;;;;;;;1.52;100.00;98129.06;10370727;28;20205;-66
2022/01/19 01:22:34;;;;;;;24.83;12.97;;;;;;;1.35;100.00;98096.22;10370028;28;20232;-66
2022/01/19 01:27:35;;;;;;;16.10;11.00;;;;;;;1.52;100.00;98087.75;10369319;28;20193;-66
2022/01/19 01:32:35;;;;;;;19.17;12.93;;;;;;;1.41;100.00;98077.88;10369032;28;20285;-65
2022/01/19 01:37:36;;;;;;;16.10;11.30;;;;;;;1.51;100.00;98080.91;10370368;28;20188;-66
2022/01/19 01:42:36;;;;;;;17.83;10.20;;;;;;;1.34;100.00;98061.81;10368828;28;20217;-66
2022/01/19 01:47:43;;;;;;;18.60;11.37;;;;;;;1.53;100.00;98050.69;10376049;28;20671;-62
2022/01/19 01:58:03;;;;;;;18.67;11.20;;;;;;;1.36;100.00;98056.56;10364999;28;20193;-65
2022/01/19 02:03:03;;;;;;;17.57;10.50;;;;;;;1.58;100.00;98065.06;10376081;28;20217;-65
2022/01/19 02:08:17;;;;;;;15.43;10.47;;;;;;;1.56;100.00;98061.72;10376537;28;20736;-64
2022/01/19 02:23:58;;;;;;;56.03;26.20;;;;;;;1.48;100.00;98026.81;10375702;28;20221;-65
2022/01/19 02:29:13;;;;;;;13.43;9.00;;;;;;;1.46;100.00;98013.13;10375804;28;20720;-63
2022/01/19 02:49:53;;;;;;;8.63;6.23;;;;;;;1.14;100.00;97972.31;10374981;28;20186;-65
2022/01/19 02:54:54;;;;;;;8.00;4.97;;;;;;;1.19;100.00;97966.97;10374731;28;20243;-65
2022/01/19 03:10:14;;;;;;;11.20;6.53;;;;;;;1.12;100.00;97921.66;10375189;28;20235;-65
2022/01/19 03:15:15;;;;;;;9.70;5.63;;;;;;;1.00;100.00;97905.84;10373931;28;20203;-65
2022/01/19 03:20:15;;;;;;;8.80;5.40;;;;;;;0.90;100.00;97894.22;10374370;28;20693;-66
2022/01/19 03:25:16;;;;;;;11.70;7.07;;;;;;;0.70;100.00;97885.63;10373403;28;20309;-66
2022/01/19 03:30:18;;;;;;;12.37;7.27;;;;;;;0.43;100.00;97882.50;10373052;28;20593;-66
2022/01/19 03:35:18;;;;;;;12.53;6.70;;;;;;;0.33;100.00;97876.03;10372909;28;20216;-66
2022/01/19 03:40:19;;;;;;;10.60;6.27;;;;;;;0.19;100.00;97868.88;10369267;28;20559;-65
2022/01/19 03:45:20;;;;;;;12.23;7.97;;;;;;;0.13;100.00;97861.41;10369563;28;20608;-65
2022/01/19 03:50:20;;;;;;;11.00;7.77;;;;;;;0.07;100.00;97859.06;10372605;28;20186;-65
2022/01/19 03:55:20;;;;;;;13.90;7.93;;;;;;;-0.05;100.00;97842.38;10371839;28;20233;-62
2022/01/19 04:00:21;;;;;;;10.03;6.93;;;;;;;-0.08;100.00;97824.47;10372186;28;20200;-64
2022/01/19 04:05:26;;;;;;;12.20;7.70;;;;;;;-0.20;100.00;97812.91;10372510;28;20229;-64
2022/01/19 04:10:26;;;;;;;15.63;8.10;;;;;;;-0.49;100.00;97803.81;10370737;28;20194;-65
2022/01/19 04:15:27;;;;;;;12.97;7.70;;;;;;;-0.50;100.00;97784.13;10371531;28;20209;-64
2022/01/19 04:20:27;;;;;;;10.83;6.93;;;;;;;-0.56;100.00;97773.16;10372137;28;20185;-63
2022/01/19 04:25:29;;;;;;;9.13;6.10;;;;;;;-0.52;100.00;97755.03;10371102;28;20228;-63
2022/01/19 04:30:30;;;;;;;14.53;9.23;;;;;;;-0.86;100.00;97734.03;10371059;28;20543;-65
2022/01/19 04:35:44;;;;;;;17.13;9.70;;;;;;;-0.98;100.00;97721.66;10370718;28;20255;-65
2022/01/19 04:44:04;;;;;;;16.80;8.60;;;;;;;-1.26;100.00;97709.88;10370553;28;20263;-64
2022/01/19 04:46:55;;;;;;;31.63;13.67;;;;;;;-1.45;100.00;97702.84;10370635;28;20201;-63
2022/01/19 05:07:42;;;;;;;10.10;6.50;;;;;;;-1.94;100.00;97684.13;10386147;28;20268;-60
2022/01/19 05:18:03;;;;;;;12.87;7.87;;;;;;;-2.15;100.00;97665.16;10369720;28;20347;-59
2022/01/19 05:23:03;;;;;;;13.10;7.20;;;;;;;-2.22;100.00;97645.75;10369581;28;20683;-58
2022/01/19 05:28:04;;;;;;;15.87;9.17;;;;;;;-2.30;100.00;97655.44;10369062;28;20209;-58
2022/01/19 05:33:05;;;;;;;14.57;8.97;;;;;;;-2.61;100.00;97656.50;10369091;28;20181;-60
2022/01/19 05:38:05;;;;;;;16.60;8.13;;;;;;;-2.81;100.00;97664.88;10368806;28;20213;-62
2022/01/19 05:43:13;;;;;;;13.43;7.90;;;;;;;-2.76;100.00;97655.28;10369106;28;20209;-62
2022/01/19 05:48:14;;;;;;;17.83;9.17;;;;;;;-2.47;100.00;97649.16;10368746;28;20658;-57
2022/01/19 05:53:18;;;;;;;15.00;8.93;;;;;;;-2.47;100.00;97650.91;10368657;28;20213;-61
2022/01/19 05:58:19;;;;;;;14.03;8.73;;;;;;;-2.60;100.00;97651.31;10368751;28;20312;-62
2022/01/19 06:03:22;;;;;;;13.60;8.23;;;;;;;-2.89;100.00;97640.31;10368245;28;20307;-62
2022/01/19 06:08:43;;;;;;;15.67;7.67;;;;;;;-2.89;100.00;97631.78;10369183;28;20193;-62
2022/01/19 06:13:44;;;;;;;17.70;8.87;;;;;;;-2.77;100.00;97626.25;10367932;28;20185;-62
2022/01/19 06:18:45;;;;;;;16.70;9.10;;;;;;;-2.79;100.00;97616.91;10369497;28;20189;-59
2022/01/19 06:23:46;;;;;;;20.60;9.83;;;;;;;-2.77;100.00;97599.75;10367554;28;20759;-62
2022/01/19 06:28:51;;;;;;;17.93;8.73;;;;;;;-2.73;100.00;97591.06;10368481;28;20212;-61
2022/01/19 06:33:52;;;;;;;14.03;8.60;;;;;;;-2.54;100.00;97588.72;10372937;28;20190;-60
2022/01/19 06:38:56;;;;;;;14.70;8.80;;;;;;;-2.41;100.00;97581.41;10376227;28;20193;-60
2022/01/19 06:44:05;;;;;;;16.00;9.00;;;;;;;-2.35;100.00;97576.06;10376049;28;20221;-61
2022/01/19 06:49:05;;;;;;;21.27;11.03;;;;;;;-2.32;100.00;97568.25;10376100;28;20268;-62
2022/01/19 06:54:08;;;;;;;21.40;11.10;;;;;;;-2.18;100.00;97563.44;10374410;28;20264;-61
2022/01/19 06:59:10;;;;;;;21.70;11.50;;;;;;;-2.26;100.00;97554.38;10374608;28;20193;-62
2022/01/19 07:04:29;;;;;;;24.20;12.33;;;;;;;-2.16;100.00;97556.53;10375435;28;20229;-61
2022/01/19 07:09:29;;;;;;;30.97;14.40;;;;;;;-1.97;100.00;97550.72;10373991;28;20193;-61
2022/01/19 07:14:31;;;;;;;27.90;14.47;;;;;;;-1.94;100.00;97535.19;10373682;28;20202;-61
2022/01/19 07:19:31;;;;;;;28.83;13.83;;;;;;;-1.83;100.00;97527.06;10373747;28;20197;-62
2022/01/19 07:24:32;;;;;;;28.53;12.70;;;;;;;-1.70;100.00;97517.13;10373140;28;20217;-61
2022/01/19 07:29:33;;;;;;;25.93;13.83;;;;;;;-1.57;100.00;97497.78;10373685;28;20189;-61
2022/01/19 07:34:34;;;;;;;23.03;13.17;;;;;;;-1.35;100.00;97487.44;10372810;28;20255;-62
2022/01/19 07:39:39;;;;;;;24.63;13.20;;;;;;;-1.33;100.00;97474.53;10373048;28;20192;-60
2022/01/19 07:44:39;;;;;;;20.67;12.10;;;;;;;-1.40;100.00;97471.38;10373653;28;20227;-61
2022/01/19 07:49:58;;;;;;;20.10;11.70;;;;;;;-1.48;100.00;97458.03;10373247;28;20580;-62
2022/01/19 07:55:19;;;;;;;21.93;11.73;;;;;;;-1.22;100.00;97449.22;10371931;28;20746;-62
2022/01/19 08:00:35;;;;;;;11.60;6.63;;;;;;;-0.83;100.00;97427.81;10372279;28;20276;-61
2022/01/19 08:05:56;;;;;;;19.20;9.50;;;;;;;-0.17;100.00;97416.22;10372772;28;20744;-60
2022/01/19 08:10:56;;;;;;;13.03;8.13;;;;;;;0.29;100.00;97403.72;10371761;28;20242;-60
2022/01/19 08:15:57;;;;;;;11.33;7.33;;;;;;;0.80;100.00;97392.63;10371412;28;20758;-61
2022/01/19 08:20:59;;;;;;;10.87;6.77;;;;;;;1.34;100.00;97385.44;10370848;28;20204;-61
2022/01/19 08:26:06;;;;;;;8.73;6.40;;;;;;;1.68;100.00;97365.53;10371256;28;20228;-61
2022/01/19 08:31:06;;;;;;;10.73;6.70;;;;;;;1.76;100.00;97353.03;10370624;28;20192;-61
2022/01/19 08:36:39;;;;;;;8.70;5.87;;;;;;;1.69;100.00;97345.72;10370850;28;20724;-59
2022/01/19 08:41:48;;;;;;;11.00;6.57;;;;;;;2.21;100.00;97318.66;10370307;28;20213;-62
2022/01/19 08:46:48;;;;;;;8.33;5.53;;;;;;;2.46;100.00;97307.69;10370453;28;20307;-62
2022/01/19 08:52:04;;;;;;;7.57;3.83;;;;;;;2.81;100.00;97297.81;10370992;28;20284;-62
2022/01/19 08:57:10;;;;;;;7.70;5.33;;;;;;;3.53;97.22;97276.09;10369193;28;20247;-62
2022/01/19 09:02:11;;;;;;;8.60;5.00;;;;;;;4.01;93.59;97265.22;10370481;28;21026;-62
2022/01/19 09:07:11;;;;;;;7.00;5.43;;;;;;;4.05;91.22;97251.13;10370751;28;20589;-63
2022/01/19 09:12:12;;;;;;;6.20;4.77;;;;;;;3.94;91.01;97251.84;10370604;28;20211;-63
2022/01/19 09:17:12;;;;;;;7.17;4.43;;;;;;;3.66;90.37;97251.06;10352683;28;20308;-63
2022/01/19 09:22:13;;;;;;;5.60;4.60;;;;;;;3.00;93.46;97275.97;10329335;28;20225;-63
2022/01/19 09:27:15;;;;;;;5.67;4.57;;;;;;;2.61;95.08;97287.84;10329713;28;20218;-63
2022/01/19 09:32:15;;;;;;;7.63;5.10;;;;;;;3.09;95.10;97288.34;10329502;28;20218;-63
2022/01/19 09:37:16;;;;;;;7.50;4.90;;;;;;;3.08;94.65;97291.88;10329477;28;20237;-63
2022/01/19 09:42:17;;;;;;;6.90;5.10;;;;;;;2.53;94.43;97298.66;10329309;28;20296;-62
2022/01/19 09:47:17;;;;;;;6.70;3.80;;;;;;;2.87;93.48;97298.38;10329275;28;20272;-61
2022/01/19 09:52:18;;;;;;;5.53;4.17;;;;;;;3.37;89.90;97261.56;10329474;28;20289;-60
2022/01/19 09:57:19;;;;;;;3.40;3.00;;;;;;;3.29;88.59;97255.19;10328792;28;20249;-62
2022/01/19 10:02:19;;;;;;;6.77;5.23;;;;;;;3.72;87.99;97242.06;10329048;28;20320;-63
2022/01/19 10:07:22;;;;;;;8.20;6.37;;;;;;;3.00;91.28;97287.19;10331851;28;20668;-63
2022/01/19 10:18:06;;;;;;;8.03;5.73;;;;;;;3.77;88.60;97273.69;10336585;28;20206;-63
2022/01/19 10:23:33;;;;;;;7.33;5.60;;;;;;;4.07;88.67;97270.84;10335993;28;20308;-64
2022/01/19 10:28:58;;;;;;;7.57;5.90;;;;;;;4.72;85.76;97232.72;10335906;28;20659;-63
2022/01/19 10:34:17;;;;;;;6.47;5.20;;;;;;;5.28;82.73;97208.03;10335744;28;20599;-64
2022/01/19 10:39:19;;;;;;;6.73;5.10;;;;;;;5.89;79.63;97163.69;10335479;28;20197;-63
2022/01/19 10:44:28;;;;;;;8.03;5.10;;;;;;;5.66;79.51;97155.81;10335527;28;20234;-63
2022/01/19 10:49:46;;;;;;;8.27;6.07;;;;;;;4.51;82.52;97187.53;10337059;28;20190;-63
2022/01/19 10:54:49;;;;;;;10.03;6.87;;;;;;;4.45;85.02;97199.97;10380470;22;20689;-62
2022/01/19 10:59:50;;;;;;;12.23;7.43;;;;;;;4.45;83.20;97178.38;10415428;28;20744;-62
2022/01/19 11:04:50;;;;;;;12.73;8.33;;;;;;;3.69;85.82;97198.19;10414414;28;20312;-62
2022/01/19 11:10:00;;;;;;;12.37;7.27;;;;;;;3.58;86.91;97188.56;10415763;28;20348;-61
2022/01/19 11:15:00;;;;;;;7.70;6.40;;;;;;;3.31;87.40;97163.53;10415433;28;20223;-64
2022/01/19 11:20:07;;;;;;;8.93;6.40;;;;;;;3.41;88.52;97152.59;10414295;28;20681;-62
2022/01/19 11:25:31;;;;;;;7.33;5.20;;;;;;;3.52;87.59;97126.78;10414897;28;20216;-63
2022/01/19 11:30:34;;;;;;;9.00;6.20;;;;;;;4.19;85.76;97097.22;10415120;28;20224;-64
2022/01/19 11:35:35;;;;;;;9.40;6.17;;;;;;;3.93;83.88;97054.00;10414735;28;20269;-64
2022/01/19 11:40:35;;;;;;;7.30;6.13;;;;;;;4.22;83.15;97020.03;10414156;28;20197;-64
2022/01/19 11:45:38;;;;;;;6.83;4.90;;;;;;;5.11;78.68;96954.75;10413481;28;20582;-62
2022/01/19 11:50:38;;;;;;;7.47;5.00;;;;;;;5.40;77.50;96949.09;10413713;28;20200;-63
2022/01/19 11:55:40;;;;;;;4.87;3.83;;;;;;;5.21;77.20;96940.13;10413121;28;20221;-62
2022/01/19 12:00:44;;;;;;;5.30;4.10;;;;;;;6.02;74.05;96896.56;10411420;28;20209;-63
2022/01/19 12:05:45;;;;;;;5.60;3.90;;;;;;;6.34;71.12;96846.31;10407065;28;20209;-63
2022/01/19 12:10:48;;;;;;;4.63;3.97;;;;;;;7.52;67.99;96807.72;10412463;28;20223;-61
2022/01/19 12:15:57;;;;;;;4.40;3.70;;;;;;;7.87;66.77;96804.56;10412438;28;20691;-64
2022/01/19 12:20:57;;;;;;;3.57;3.17;;;;;;;9.03;61.64;96719.09;10412083;28;20195;-63
2022/01/19 12:26:02;;;;;;;3.90;3.00;;;;;;;7.61;64.02;96746.94;10412488;28;20709;-61
2022/01/19 12:31:22;;;;;;;3.23;2.40;;;;;;;7.25;65.25;96768.31;10411149;28;20633;-63
2022/01/19 12:36:51;;;;;;;7.50;3.50;;;;;;;5.94;71.14;96833.94;10411322;28;20799;-63
2022/01/19 12:42:03;;;;;;;5.07;3.70;;;;;;;7.47;67.16;96745.56;10405512;28;20259;-63
2022/01/19 12:47:05;;;;;;;4.00;2.83;;;;;;;7.27;65.65;96721.25;10411461;28;20223;-63
2022/01/19 12:52:14;;;;;;;6.83;3.37;;;;;;;6.75;69.08;96750.91;10410464;28;20192;-62
2022/01/19 12:57:16;;;;;;;3.77;3.17;;;;;;;6.74;67.12;96701.56;10411135;28;20268;-63
2022/01/19 13:02:18;;;;;;;6.63;3.73;;;;;;;7.23;67.65;96692.06;10410393;28;20306;-64
2022/01/19 13:07:24;;;;;;;3.63;3.17;;;;;;;6.15;67.43;96674.50;10411047;28;20212;-63
2022/01/19 13:12:49;;;;;;;4.57;3.07;;;;;;;6.58;67.62;96671.66;10410709;28;20188;-63
2022/01/19 13:17:52;;;;;;;3.33;2.70;;;;;;;7.59;63.35;96615.91;10410385;28;20224;-63
2022/01/19 13:22:55;;;;;;;4.67;2.50;;;;;;;6.95;64.43;96636.34;10410165;28;20346;-63
2022/01/19 13:27:57;;;;;;;3.87;2.70;;;;;;;7.02;65.43;96639.25;10410478;28;20884;-62
2022/01/19 13:32:58;;;;;;;3.30;2.50;;;;;;;6.65;66.85;96664.13;10410509;28;20207;-63
2022/01/19 13:37:58;;;;;;;3.57;3.07;;;;;;;5.97;68.07;96677.72;10410186;28;20229;-62
2022/01/19 13:43:03;;;;;;;4.73;3.47;;;;;;;6.28;69.16;96695.09;10416224;28;20231;-62
2022/01/19 13:53:23;;;;;;;6.43;4.37;;;;;;;4.52;74.72;96781.84;10418491;28;20192;-63
2022/01/19 13:58:34;;;;;;;8.20;3.77;;;;;;;4.41;76.18;96804.28;10416111;28;20706;-63
2022/01/19 14:03:52;;;;;;;7.03;4.83;;;;;;;4.19;76.77;96791.25;10417760;28;20219;-63
2022/01/19 14:09:10;;;;;;;8.70;5.40;;;;;;;3.71;78.25;96803.34;10418116;28;20365;-64
2022/01/19 14:14:14;;;;;;;6.90;4.67;;;;;;;3.02;80.71;96816.88;10417395;28;20645;-63
2022/01/19 14:19:26;;;;;;;8.50;6.60;;;;;;;3.58;80.71;96802.59;10418158;28;20224;-62
2022/01/19 14:24:27;;;;;;;8.43;6.63;;;;;;;2.39;83.51;96822.91;10416961;28;20224;-62
2022/01/19 14:29:28;;;;;;;11.37;7.57;;;;;;;2.04;87.22;96833.84;10417350;28;20675;-60
2022/01/19 14:34:46;;;;;;;12.60;8.20;;;;;;;1.84;89.26;96848.03;10416552;28;20311;-59
2022/01/19 14:39:57;;;;;;;13.83;8.30;;;;;;;1.69;90.31;96830.03;10415443;28;20192;-61
2022/01/19 14:45:21;;;;;;;15.00;9.47;;;;;;;1.14;93.64;96824.03;10415705;28;20220;-61
2022/01/19 14:50:33;;;;;;;12.87;8.43;;;;;;;0.94;97.59;96833.00;10416972;28;20565;-62
2022/01/19 14:55:38;;;;;;;17.40;11.00;;;;;;;0.48;100.00;96823.69;10412546;28;20323;-61
2022/01/19 15:00:41;;;;;;;16.57;9.90;;;;;;;0.31;100.00;96811.81;10413511;28;20275;-62
2022/01/19 15:05:42;;;;;;;15.47;10.33;;;;;;;0.25;100.00;96811.34;10415989;28;20246;-62
2022/01/19 15:10:42;;;;;;;12.43;8.20;;;;;;;0.34;100.00;96790.19;10415546;28;20619;-61
2022/01/19 15:15:43;;;;;;;10.70;7.60;;;;;;;0.02;100.00;96772.31;10415938;28;20246;-62
2022/01/19 15:20:43;;;;;;;12.23;8.37;;;;;;;0.15;100.00;96733.78;10415815;28;20188;-61
2022/01/19 15:25:44;;;;;;;11.80;6.67;;;;;;;0.05;100.00;96733.50;10414610;28;20844;-62
2022/01/19 15:30:47;;;;;;;61.20;23.40;;;;;;;0.01;100.00;96747.47;10414987;28;20647;-62
2022/01/19 15:35:50;;;;;;;110.13;40.90;;;;;;;-0.13;100.00;96743.13;10415135;28;20650;-60
2022/01/19 15:40:50;;;;;;;48.50;18.53;;;;;;;-0.17;100.00;96731.34;10414708;28;20188;-61
2022/01/19 15:45:51;;;;;;;52.53;24.50;;;;;;;-0.16;100.00;96732.19;10414875;28;20228;-62
2022/01/19 15:50:55;;;;;;;26.67;14.27;;;;;;;-0.21;100.00;96732.47;10414698;28;20289;-61
2022/01/19 15:55:56;;;;;;;22.43;12.53;;;;;;;-0.19;100.00;96725.47;10414290;28;20234;-60
2022/01/19 16:00:56;;;;;;;13.20;8.97;;;;;;;-0.26;100.00;96731.88;10414111;28;20566;-61
2022/01/19 16:05:57;;;;;;;13.33;8.40;;;;;;;-0.23;100.00;96723.97;10413425;28;20231;-61
2022/01/19 16:10:57;;;;;;;24.00;15.00;;;;;;;-0.40;100.00;96720.66;10413789;28;20196;-61
2022/01/19 16:15:57;;;;;;;11.67;9.67;;;;;;;-0.42;100.00;96721.66;10413330;28;20354;-60
2022/01/19 16:21:00;;;;;;;19.33;15.47;;;;;;;-0.47;100.00;96698.75;10413283;28;20185;-61
2022/01/19 16:26:07;;;;;;;20.77;11.30;;;;;;;-0.47;100.00;96688.47;10412849;28;20233;-62
2022/01/19 16:31:08;;;;;;;12.90;8.47;;;;;;;-0.51;100.00;96688.75;10412428;28;20627;-62
2022/01/19 16:36:08;;;;;;;16.10;7.80;;;;;;;-0.46;100.00;96679.84;10412314;28;20216;-61
2022/01/19 16:41:11;;;;;;;8.57;7.63;;;;;;;-0.62;100.00;96684.22;10412339;28;20204;-61
2022/01/19 16:46:12;;;;;;;17.30;13.10;;;;;;;-0.68;100.00;96674.28;10411651;28;20726;-62
2022/01/19 16:51:13;;;;;;;15.13;8.30;;;;;;;-0.61;100.00;96681.53;10411996;28;20250;-61
2022/01/19 16:56:13;;;;;;;128.93;74.57;;;;;;;-0.68;100.00;96677.66;10442889;22;20799;-64
2022/01/19 17:01:14;;;;;;;14.43;9.97;;;;;;;-0.62;100.00;96673.91;10411427;28;20667;-62
2022/01/19 17:06:15;;;;;;;12.17;8.93;;;;;;;-0.75;100.00;96684.91;10411176;28;20231;-61
2022/01/19 17:11:15;;;;;;;12.97;6.13;;;;;;;-0.66;100.00;96690.44;10411418;28;20269;-62
2022/01/19 17:16:33;;;;;;;39.60;18.50;;;;;;;-0.60;100.00;96692.66;10410652;28;20205;-61
2022/01/19 17:21:33;;;;;;;24.67;13.00;;;;;;;-0.47;100.00;96691.03;10410929;28;20188;-61
2022/01/19 17:26:33;;;;;;;9.30;7.10;;;;;;;-0.22;100.00;96684.47;10410886;28;20220;-61
2022/01/19 17:31:35;;;;;;;10.40;6.87;;;;;;;0.01;100.00;96672.78;10410744;28;20208;-60
2022/01/19 17:36:36;;;;;;;9.13;6.10;;;;;;;0.01;100.00;96670.22;10411514;28;20752;-62
2022/01/19 17:41:36;;;;;;;9.43;5.93;;;;;;;0.12;100.00;96674.72;10410855;28;20203;-61
2022/01/19 17:46:46;;;;;;;13.77;7.93;;;;;;;0.14;100.00;96665.16;10410279;28;20220;-61
2022/01/19 17:52:22;;;;;;;15.40;7.13;;;;;;;0.12;100.00;96661.84;10408717;28;20186;-60
2022/01/19 17:57:23;;;;;;;13.03;8.37;;;;;;;0.13;100.00;96669.47;10410115;28;20712;-61
2022/01/19 18:02:23;;;;;;;15.97;9.53;;;;;;;0.04;100.00;96653.75;10409565;28;20259;-60
2022/01/19 18:07:24;;;;;;;19.07;9.53;;;;;;;0.03;100.00;96654.66;10409754;28;20212;-61
2022/01/19 18:12:25;;;;;;;16.10;9.93;;;;;;;0.06;100.00;96657.91;10410078;28;20199;-62
2022/01/19 18:17:26;;;;;;;16.33;9.57;;;;;;;0.12;100.00;96654.09;10409554;28;20208;-60
2022/01/19 18:22:26;;;;;;;19.03;10.63;;;;;;;0.10;100.00;96654.19;10409776;28;20220;-62
2022/01/19 18:27:28;;;;;;;10.73;6.60;;;;;;;0.16;100.00;96625.50;10411017;28;20292;-61
2022/01/19 18:32:28;;;;;;;20.83;12.50;;;;;;;0.18;100.00;96640.84;10417224;28;20252;-62
2022/01/19 18:37:29;;;;;;;22.70;12.50;;;;;;;0.26;100.00;96623.19;10417175;28;20223;-60
2022/01/19 18:42:29;;;;;;;20.13;11.20;;;;;;;0.24;100.00;96630.16;10416844;28;20208;-60
2022/01/19 18:47:30;;;;;;;18.27;10.77;;;;;;;0.31;100.00;96612.59;10416243;28;20207;-60
2022/01/19 18:52:30;;;;;;;21.53;10.67;;;;;;;0.33;100.00;96606.41;10416265;28;20677;-60
2022/01/19 18:57:30;;;;;;;16.27;10.40;;;;;;;0.40;100.00;96603.44;10416217;28;20652;-61
2022/01/19 19:02:31;;;;;;;16.40;11.07;;;;;;;0.32;100.00;96593.63;10415741;28;20721;-63
2022/01/19 19:07:33;;;;;;;15.13;10.57;;;;;;;0.34;100.00;96604.69;10415505;28;20632;-62
2022/01/19 19:12:35;;;;;;;16.13;10.50;;;;;;;0.36;100.00;96605.41;10416882;28;20191;-60
2022/01/19 19:17:35;;;;;;;17.17;11.97;;;;;;;0.35;100.00;96583.97;10414931;28;20222;-61
2022/01/19 19:22:36;;;;;;;17.40;8.47;;;;;;;0.46;100.00;96573.00;10415325;28;20382;-61
2022/01/19 19:27:36;;;;;;;16.57;11.73;;;;;;;0.40;100.00;96582.84;10413851;28;20219;-61
2022/01/19 19:32:37;;;;;;;26.60;13.30;;;;;;;0.46;100.00;96557.53;10415035;28;20202;-61
2022/01/19 19:37:37;;;;;;;18.30;10.80;;;;;;;0.43;100.00;96550.00;10414602;28;20209;-61
2022/01/19 19:42:38;;;;;;;37.03;15.87;;;;;;;0.39;100.00;96537.41;10414500;28;20238;-62
2022/01/19 19:47:38;;;;;;;14.83;10.63;;;;;;;0.30;100.00;96531.06;10414097;28;20579;-61
2022/01/19 19:52:42;;;;;;;20.30;9.97;;;;;;;0.35;100.00;96539.31;10414265;28;20188;-62
2022/01/19 19:57:43;;;;;;;15.60;10.37;;;;;;;0.33;100.00;96542.00;10413879;28;20240;-61
2022/01/19 20:02:43;;;;;;;12.37;9.67;;;;;;;0.36;100.00;96525.53;10413474;28;20224;-59
2022/01/19 20:07:44;;;;;;;14.63;7.53;;;;;;;0.37;100.00;96521.19;10413507;28;20266;-61
2022/01/19 20:12:46;;;;;;;12.93;9.27;;;;;;;0.34;100.00;96528.19;10413532;28;20184;-61
2022/01/19 20:17:49;;;;;;;14.27;9.10;;;;;;;0.28;100.00;96525.19;10413162;28;20244;-61
2022/01/19 20:22:49;;;;;;;13.33;8.13;;;;;;;0.24;100.00;96528.88;10413057;28;20220;-61
2022/01/19 20:27:50;;;;;;;8.93;7.00;;;;;;;0.26;100.00;96516.72;10412978;28;20628;-61
2022/01/19 20:32:51;;;;;;;10.70;6.30;;;;;;;0.30;100.00;96521.59;10412829;28;20220;-61
2022/01/19 20:37:51;;;;;;;13.60;6.10;;;;;;;0.29;100.00;96516.53;10413024;28;20225;-61
2022/01/19 20:42:51;;;;;;;7.73;5.93;;;;;;;0.29;100.00;96519.94;10412591;28;20314;-61
2022/01/19 20:47:52;;;;;;;9.77;5.90;;;;;;;0.29;100.00;96506.22;10412430;28;20229;-62
2022/01/19 20:52:52;;;;;;;7.63;5.37;;;;;;;0.30;100.00;96502.72;10411535;28;20184;-60
2022/01/19 20:57:52;;;;;;;7.07;5.50;;;;;;;0.38;100.00;96505.63;10411891;28;20232;-61
2022/01/19 21:02:53;;;;;;;7.17;4.90;;;;;;;0.37;100.00;96491.13;10411367;28;20690;-59
2022/01/19 21:07:53;;;;;;;6.43;4.77;;;;;;;0.32;100.00;96485.41;10411904;28;20587;-57
2022/01/19 21:12:56;;;;;;;6.00;4.50;;;;;;;0.31;100.00;96471.72;10411778;28;20193;-61
2022/01/19 21:17:57;;;;;;;6.47;3.77;;;;;;;0.40;100.00;96465.16;10411813;28;20212;-61
2022/01/19 21:22:57;;;;;;;7.17;4.93;;;;;;;0.25;100.00;96453.25;10411298;28;20586;-60
2022/01/19 21:27:58;;;;;;;8.03;5.23;;;;;;;0.16;100.00;96450.34;10411535;28;20216;-61
2022/01/19 21:32:58;;;;;;;6.03;4.23;;;;;;;0.13;100.00;96447.97;10411308;28;20208;-61
2022/01/19 21:37:59;;;;;;;6.77;5.73;;;;;;;0.07;100.00;96443.19;10411165;28;20702;-61
2022/01/19 21:43:02;;;;;;;6.53;5.27;;;;;;;0.08;100.00;96447.44;10411228;28;20234;-60
2022/01/19 21:48:02;;;;;;;7.70;5.20;;;;;;;-0.09;100.00;96448.50;10410764;28;20212;-60
2022/01/19 21:53:02;;;;;;;9.10;6.23;;;;;;;-0.09;100.00;96443.38;10411079;28;20271;-61
2022/01/19 21:58:03;;;;;;;9.10;5.87;;;;;;;-0.06;100.00;96430.31;10410354;28;20244;-60
2022/01/19 22:03:04;;;;;;;7.20;6.00;;;;;;;-0.07;100.00;96438.94;10414386;28;20247;-61
2022/01/19 22:08:06;;;;;;;7.93;5.60;;;;;;;-0.05;100.00;96436.25;10418596;28;20279;-60
2022/01/19 22:13:07;;;;;;;8.50;5.90;;;;;;;-0.08;100.00;96441.59;10418526;28;20189;-62
2022/01/19 22:18:07;;;;;;;7.93;6.23;;;;;;;-0.05;100.00;96444.81;10418679;28;20204;-62
2022/01/19 22:23:08;;;;;;;7.70;5.70;;;;;;;-0.05;100.00;96438.84;10418205;28;20297;-61
2022/01/19 22:28:08;;;;;;;8.03;6.90;;;;;;;-0.16;100.00;96452.41;10418075;28;20295;-59
2022/01/19 22:33:09;;;;;;;8.17;6.03;;;;;;;-0.09;100.00;96466.53;10417933;28;20200;-60
2022/01/19 22:38:09;;;;;;;7.63;6.03;;;;;;;-0.07;100.00;96463.88;10417468;28;20240;-60
2022/01/19 22:43:09;;;;;;;9.07;6.40;;;;;;;0.05;100.00;96464.84;10417686;28;20276;-61
2022/01/19 22:48:10;;;;;;;8.47;6.53;;;;;;;0.03;100.00;96475.25;10417010;28;20246;-61
2022/01/19 22:53:10;;;;;;;6.07;4.97;;;;;;;0.04;100.00;96452.88;10417273;28;20242;-61
2022/01/19 22:58:11;;;;;;;8.10;6.90;;;;;;;0.10;100.00;96439.63;10429180;22;20801;-60
2022/01/19 23:03:12;;;;;;;8.93;5.97;;;;;;;0.06;100.00;96456.19;10374895;28;20235;-59
2022/01/19 23:08:12;;;;;;;9.30;8.40;;;;;;;0.02;100.00;96447.84;10375002;28;20259;-57
2022/01/19 23:13:17;;;;;;;10.80;7.03;;;;;;;-0.03;100.00;96453.28;10374740;28;20193;-61
2022/01/19 23:18:18;;;;;;;10.60;8.73;;;;;;;-0.06;100.00;96460.34;10373158;28;20220;-61
2022/01/19 23:23:18;;;;;;;12.73;7.83;;;;;;;-0.10;100.00;96457.16;10374895;28;20220;-57
2022/01/19 23:28:20;;;;;;;10.07;7.07;;;;;;;-0.04;100.00;96456.75;10373600;28;20282;-59
2022/01/19 23:33:23;;;;;;;11.10;6.90;;;;;;;-0.01;100.00;96446.28;10373591;28;20190;-57
2022/01/19 23:49:12;;;;;;;8.90;6.03;;;;;;;0.06;100.00;96438.16;10354662;28;20770;-59
2022/01/19 23:54:12;;;;;;;7.17;4.53;;;;;;;0.15;100.00;96433.25;10373637;28;20244;-57
2022/01/19 23:59:13;;;;;;;8.13;6.23;;;;;;;0.22;100.00;96435.44;10372809;28;20245;-57
